sensor_id;sensor_type;location;lat;lon;timestamp;temperature;humidity
51982;DHT22;37998;53.416;6.730;2023-05-07T00:00:05;11.60;99.90
51982;DHT22;37998;53.416;6.730;2023-05-07T00:02:35;11.60;99.90
51982;DHT22;37998;53.416;6.730;2023-05-07T00:05:01;11.50;99.90
51982;DHT22;37998;53.416;6.730;2023-05-07T00:07:28;11.60;99.90
51982;DHT22;37998;53.416;6.730;2023-05-07T00:09:54;11.50;99.90
51982;DHT22;37998;53.416;6.730;2023-05-07T00:12:20;11.50;99.90
51982;DHT22;37998;53.416;6.730;2023-05-07T00:14:46;11.60;99.90
51982;DHT22;37998;53.416;6.730;2023-05-07T00:17:11;11.60;99.90
51982;DHT22;37998;53.416;6.730;2023-05-07T00:19:37;11.60;99.90
51982;DHT22;37998;53.416;6.730;2023-05-07T00:22:03;11.60;99.90
51982;DHT22;37998;53.416;6.730;2023-05-07T00:24:29;11.60;99.90
51982;DHT22;37998;53.416;6.730;2023-05-07T00:26:55;11.60;99.90
51982;DHT22;37998;53.416;6.730;2023-05-07T00:29:21;11.60;99.90
51982;DHT22;37998;53.416;6.730;2023-05-07T00:31:49;11.50;99.90
51982;DHT22;37998;53.416;6.730;2023-05-07T00:34:15;11.50;99.90
51982;DHT22;37998;53.416;6.730;2023-05-07T00:36:41;11.60;99.90
51982;DHT22;37998;53.416;6.730;2023-05-07T00:39:07;11.60;99.90
51982;DHT22;37998;53.416;6.730;2023-05-07T00:41:33;11.60;99.90
51982;DHT22;37998;53.416;6.730;2023-05-07T00:43:58;11.60;99.90
51982;DHT22;37998;53.416;6.730;2023-05-07T00:46:24;11.60;99.90
51982;DHT22;37998;53.416;6.730;2023-05-07T00:48:51;11.60;99.90
51982;DHT22;37998;53.416;6.730;2023-05-07T00:51:18;11.60;99.90
51982;DHT22;37998;53.416;6.730;2023-05-07T00:53:44;11.60;99.90
51982;DHT22;37998;53.416;6.730;2023-05-07T00:56:11;11.60;99.90
51982;DHT22;37998;53.416;6.730;2023-05-07T00:58:37;11.70;99.90
51982;DHT22;37998;53.416;6.730;2023-05-07T01:01:03;11.60;99.90
51982;DHT22;37998;53.416;6.730;2023-05-07T01:03:29;11.60;99.90
51982;DHT22;37998;53.416;6.730;2023-05-07T01:05:57;11.70;99.90
51982;DHT22;37998;53.416;6.730;2023-05-07T01:08:25;11.70;99.90
51982;DHT22;37998;53.416;6.730;2023-05-07T01:10:55;11.70;99.90
51982;DHT22;37998;53.416;6.730;2023-05-07T01:13:22;11.70;99.90
51982;DHT22;37998;53.416;6.730;2023-05-07T01:15:50;11.70;99.90
51982;DHT22;37998;53.416;6.730;2023-05-07T01:18:16;11.80;99.90
51982;DHT22;37998;53.416;6.730;2023-05-07T01:20:42;11.70;99.90
51982;DHT22;37998;53.416;6.730;2023-05-07T01:23:08;11.80;99.90
51982;DHT22;37998;53.416;6.730;2023-05-07T01:25:36;11.80;99.90
51982;DHT22;37998;53.416;6.730;2023-05-07T01:28:02;11.80;99.90
51982;DHT22;37998;53.416;6.730;2023-05-07T01:30:32;11.80;99.90
51982;DHT22;37998;53.416;6.730;2023-05-07T01:33:07;11.80;99.90
51982;DHT22;37998;53.416;6.730;2023-05-07T01:35:40;11.80;99.90
51982;DHT22;37998;53.416;6.730;2023-05-07T01:38:07;11.80;99.90
51982;DHT22;37998;53.416;6.730;2023-05-07T01:40:34;11.80;99.90
51982;DHT22;37998;53.416;6.730;2023-05-07T01:43:02;11.80;99.90
51982;DHT22;37998;53.416;6.730;2023-05-07T01:45:29;11.80;99.90
51982;DHT22;37998;53.416;6.730;2023-05-07T01:47:58;11.80;99.90
51982;DHT22;37998;53.416;6.730;2023-05-07T01:50:25;11.80;99.90
51982;DHT22;37998;53.416;6.730;2023-05-07T01:52:52;11.70;99.90
51982;DHT22;37998;53.416;6.730;2023-05-07T01:55:18;11.80;99.90
51982;DHT22;37998;53.416;6.730;2023-05-07T01:57:44;11.70;99.90
51982;DHT22;37998;53.416;6.730;2023-05-07T02:00:10;11.70;99.90
51982;DHT22;37998;53.416;6.730;2023-05-07T02:02:42;11.70;99.90
51982;DHT22;37998;53.416;6.730;2023-05-07T02:05:17;11.70;99.90
51982;DHT22;37998;53.416;6.730;2023-05-07T02:07:46;11.70;99.90
51982;DHT22;37998;53.416;6.730;2023-05-07T02:10:12;11.70;99.90
51982;DHT22;37998;53.416;6.730;2023-05-07T02:12:38;11.70;99.90
51982;DHT22;37998;53.416;6.730;2023-05-07T02:15:05;11.70;99.90
51982;DHT22;37998;53.416;6.730;2023-05-07T02:17:31;11.60;99.90
51982;DHT22;37998;53.416;6.730;2023-05-07T02:19:58;11.60;99.90
51982;DHT22;37998;53.416;6.730;2023-05-07T02:22:25;11.60;99.90
51982;DHT22;37998;53.416;6.730;2023-05-07T02:24:51;11.60;99.90
51982;DHT22;37998;53.416;6.730;2023-05-07T02:27:17;11.60;99.90
51982;DHT22;37998;53.416;6.730;2023-05-07T02:29:44;11.60;99.90
51982;DHT22;37998;53.416;6.730;2023-05-07T02:32:10;11.50;99.90
51982;DHT22;37998;53.416;6.730;2023-05-07T02:34:36;11.60;99.90
51982;DHT22;37998;53.416;6.730;2023-05-07T02:37:03;11.50;99.90
51982;DHT22;37998;53.416;6.730;2023-05-07T02:39:29;11.50;99.90
51982;DHT22;37998;53.416;6.730;2023-05-07T02:41:55;11.50;99.90
51982;DHT22;37998;53.416;6.730;2023-05-07T02:44:21;11.50;99.90
51982;DHT22;37998;53.416;6.730;2023-05-07T02:46:50;11.50;99.90
51982;DHT22;37998;53.416;6.730;2023-05-07T02:49:16;11.50;99.90
51982;DHT22;37998;53.416;6.730;2023-05-07T02:51:42;11.50;99.90
51982;DHT22;37998;53.416;6.730;2023-05-07T02:54:14;11.50;99.90
51982;DHT22;37998;53.416;6.730;2023-05-07T02:56:40;11.40;99.90
51982;DHT22;37998;53.416;6.730;2023-05-07T02:59:06;11.40;99.90
51982;DHT22;37998;53.416;6.730;2023-05-07T03:01:37;11.40;99.90
51982;DHT22;37998;53.416;6.730;2023-05-07T03:04:06;11.40;99.90
51982;DHT22;37998;53.416;6.730;2023-05-07T03:06:32;11.40;99.90
51982;DHT22;37998;53.416;6.730;2023-05-07T03:08:57;11.30;99.90
51982;DHT22;37998;53.416;6.730;2023-05-07T03:11:23;11.30;99.90
51982;DHT22;37998;53.416;6.730;2023-05-07T03:13:49;11.30;99.90
51982;DHT22;37998;53.416;6.730;2023-05-07T03:16:17;11.30;99.90
51982;DHT22;37998;53.416;6.730;2023-05-07T03:18:43;11.40;99.90
51982;DHT22;37998;53.416;6.730;2023-05-07T03:21:08;11.30;99.90
51982;DHT22;37998;53.416;6.730;2023-05-07T03:23:35;11.30;99.90
51982;DHT22;37998;53.416;6.730;2023-05-07T03:26:01;11.30;99.90
51982;DHT22;37998;53.416;6.730;2023-05-07T03:28:27;11.30;99.90
51982;DHT22;37998;53.416;6.730;2023-05-07T03:30:58;11.30;99.90
51982;DHT22;37998;53.416;6.730;2023-05-07T03:33:24;11.30;99.90
51982;DHT22;37998;53.416;6.730;2023-05-07T03:35:50;11.30;99.90
51982;DHT22;37998;53.416;6.730;2023-05-07T03:38:21;11.30;99.90
51982;DHT22;37998;53.416;6.730;2023-05-07T03:40:47;11.40;99.90
51982;DHT22;37998;53.416;6.730;2023-05-07T03:43:13;11.30;99.90
51982;DHT22;37998;53.416;6.730;2023-05-07T03:45:44;11.30;99.90
51982;DHT22;37998;53.416;6.730;2023-05-07T03:48:14;11.20;99.90
51982;DHT22;37998;53.416;6.730;2023-05-07T03:50:40;11.30;99.90
51982;DHT22;37998;53.416;6.730;2023-05-07T03:53:06;11.30;99.90
51982;DHT22;37998;53.416;6.730;2023-05-07T03:55:37;11.20;99.90
51982;DHT22;37998;53.416;6.730;2023-05-07T03:58:04;11.20;99.90
51982;DHT22;37998;53.416;6.730;2023-05-07T04:00:30;11.10;99.90
51982;DHT22;37998;53.416;6.730;2023-05-07T04:02:59;11.20;99.90
51982;DHT22;37998;53.416;6.730;2023-05-07T04:05:28;11.20;99.90
51982;DHT22;37998;53.416;6.730;2023-05-07T04:07:59;11.20;99.90
51982;DHT22;37998;53.416;6.730;2023-05-07T04:10:31;11.10;99.90
51982;DHT22;37998;53.416;6.730;2023-05-07T04:12:59;11.10;99.90
51982;DHT22;37998;53.416;6.730;2023-05-07T04:15:26;11.00;99.90
51982;DHT22;37998;53.416;6.730;2023-05-07T04:17:52;10.90;99.90
51982;DHT22;37998;53.416;6.730;2023-05-07T04:20:20;11.00;99.90
51982;DHT22;37998;53.416;6.730;2023-05-07T04:22:52;10.90;99.90
51982;DHT22;37998;53.416;6.730;2023-05-07T04:25:17;11.00;99.90
51982;DHT22;37998;53.416;6.730;2023-05-07T04:27:44;10.90;99.90
51982;DHT22;37998;53.416;6.730;2023-05-07T04:30:12;10.90;99.90
51982;DHT22;37998;53.416;6.730;2023-05-07T04:32:38;11.00;99.90
51982;DHT22;37998;53.416;6.730;2023-05-07T04:35:05;11.00;99.90
51982;DHT22;37998;53.416;6.730;2023-05-07T04:37:32;10.90;99.90
51982;DHT22;37998;53.416;6.730;2023-05-07T04:39:59;10.90;99.90
51982;DHT22;37998;53.416;6.730;2023-05-07T04:42:26;10.90;99.90
51982;DHT22;37998;53.416;6.730;2023-05-07T04:44:53;10.90;99.90
51982;DHT22;37998;53.416;6.730;2023-05-07T04:47:20;10.90;99.90
51982;DHT22;37998;53.416;6.730;2023-05-07T04:49:46;10.90;99.90
51982;DHT22;37998;53.416;6.730;2023-05-07T04:52:12;10.80;99.90
51982;DHT22;37998;53.416;6.730;2023-05-07T04:54:38;10.90;99.90
51982;DHT22;37998;53.416;6.730;2023-05-07T04:57:05;10.80;99.90
51982;DHT22;37998;53.416;6.730;2023-05-07T04:59:32;10.80;99.90
51982;DHT22;37998;53.416;6.730;2023-05-07T05:01:58;10.80;99.90
51982;DHT22;37998;53.416;6.730;2023-05-07T05:04:24;10.80;99.90
51982;DHT22;37998;53.416;6.730;2023-05-07T05:06:50;10.80;99.90
51982;DHT22;37998;53.416;6.730;2023-05-07T05:09:17;10.80;99.90
51982;DHT22;37998;53.416;6.730;2023-05-07T05:11:43;10.80;99.90
51982;DHT22;37998;53.416;6.730;2023-05-07T05:14:09;10.70;99.90
51982;DHT22;37998;53.416;6.730;2023-05-07T05:16:35;10.80;99.90
51982;DHT22;37998;53.416;6.730;2023-05-07T05:19:02;10.70;99.90
51982;DHT22;37998;53.416;6.730;2023-05-07T05:21:28;10.70;99.90
51982;DHT22;37998;53.416;6.730;2023-05-07T05:24:00;10.80;99.90
51982;DHT22;37998;53.416;6.730;2023-05-07T05:26:25;10.80;99.90
51982;DHT22;37998;53.416;6.730;2023-05-07T05:28:51;10.70;99.90
51982;DHT22;37998;53.416;6.730;2023-05-07T05:31:20;10.80;99.90
51982;DHT22;37998;53.416;6.730;2023-05-07T05:33:48;10.70;99.90
51982;DHT22;37998;53.416;6.730;2023-05-07T05:36:14;10.70;99.90
51982;DHT22;37998;53.416;6.730;2023-05-07T05:38:42;10.80;99.90
51982;DHT22;37998;53.416;6.730;2023-05-07T05:41:09;10.70;99.90
51982;DHT22;37998;53.416;6.730;2023-05-07T05:43:35;10.70;99.90
51982;DHT22;37998;53.416;6.730;2023-05-07T05:46:01;10.70;99.90
51982;DHT22;37998;53.416;6.730;2023-05-07T05:48:29;10.60;99.90
51982;DHT22;37998;53.416;6.730;2023-05-07T05:50:56;10.60;99.90
51982;DHT22;37998;53.416;6.730;2023-05-07T05:53:21;10.60;99.90
51982;DHT22;37998;53.416;6.730;2023-05-07T05:55:48;10.50;99.90
51982;DHT22;37998;53.416;6.730;2023-05-07T05:58:14;10.50;99.90
51982;DHT22;37998;53.416;6.730;2023-05-07T06:00:46;10.50;99.90
51982;DHT22;37998;53.416;6.730;2023-05-07T06:03:14;10.60;99.90
51982;DHT22;37998;53.416;6.730;2023-05-07T06:05:41;10.50;99.90
51982;DHT22;37998;53.416;6.730;2023-05-07T06:08:07;10.50;99.90
51982;DHT22;37998;53.416;6.730;2023-05-07T06:10:36;10.50;99.90
51982;DHT22;37998;53.416;6.730;2023-05-07T06:13:04;10.40;99.90
51982;DHT22;37998;53.416;6.730;2023-05-07T06:15:31;10.40;99.90
51982;DHT22;37998;53.416;6.730;2023-05-07T06:18:02;10.40;99.90
51982;DHT22;37998;53.416;6.730;2023-05-07T06:20:28;10.40;99.90
51982;DHT22;37998;53.416;6.730;2023-05-07T06:22:54;10.40;99.90
51982;DHT22;37998;53.416;6.730;2023-05-07T06:25:20;10.40;99.90
51982;DHT22;37998;53.416;6.730;2023-05-07T06:27:46;10.50;99.90
51982;DHT22;37998;53.416;6.730;2023-05-07T06:30:12;10.40;99.90
51982;DHT22;37998;53.416;6.730;2023-05-07T06:32:40;10.40;99.90
51982;DHT22;37998;53.416;6.730;2023-05-07T06:35:07;10.40;99.90
51982;DHT22;37998;53.416;6.730;2023-05-07T06:37:36;10.40;99.90
51982;DHT22;37998;53.416;6.730;2023-05-07T06:40:09;10.40;99.90
51982;DHT22;37998;53.416;6.730;2023-05-07T06:42:37;10.40;99.90
51982;DHT22;37998;53.416;6.730;2023-05-07T06:45:27;10.40;99.90
51982;DHT22;37998;53.416;6.730;2023-05-07T06:47:54;10.40;99.90
51982;DHT22;37998;53.416;6.730;2023-05-07T06:50:22;10.40;99.90
51982;DHT22;37998;53.416;6.730;2023-05-07T06:52:49;10.40;99.90
51982;DHT22;37998;53.416;6.730;2023-05-07T06:55:15;10.40;99.90
51982;DHT22;37998;53.416;6.730;2023-05-07T06:57:40;10.40;99.90
51982;DHT22;37998;53.416;6.730;2023-05-07T07:00:07;10.40;99.90
51982;DHT22;37998;53.416;6.730;2023-05-07T07:02:42;10.40;99.90
51982;DHT22;37998;53.416;6.730;2023-05-07T07:05:10;10.50;99.90
51982;DHT22;37998;53.416;6.730;2023-05-07T07:07:36;10.50;99.90
51982;DHT22;37998;53.416;6.730;2023-05-07T07:10:02;10.40;99.90
51982;DHT22;37998;53.416;6.730;2023-05-07T07:12:30;10.50;99.90
51982;DHT22;37998;53.416;6.730;2023-05-07T07:14:56;10.50;99.90
51982;DHT22;37998;53.416;6.730;2023-05-07T07:17:22;10.50;99.90
51982;DHT22;37998;53.416;6.730;2023-05-07T07:19:48;10.50;99.90
51982;DHT22;37998;53.416;6.730;2023-05-07T07:22:14;10.60;99.90
51982;DHT22;37998;53.416;6.730;2023-05-07T07:24:41;10.50;99.90
51982;DHT22;37998;53.416;6.730;2023-05-07T07:27:09;10.60;99.90
51982;DHT22;37998;53.416;6.730;2023-05-07T07:29:35;10.70;99.90
51982;DHT22;37998;53.416;6.730;2023-05-07T07:32:02;10.60;99.90
51982;DHT22;37998;53.416;6.730;2023-05-07T07:34:28;10.60;99.90
51982;DHT22;37998;53.416;6.730;2023-05-07T07:36:54;10.70;99.90
51982;DHT22;37998;53.416;6.730;2023-05-07T07:39:20;10.70;99.90
51982;DHT22;37998;53.416;6.730;2023-05-07T07:41:49;10.70;99.90
51982;DHT22;37998;53.416;6.730;2023-05-07T07:44:16;10.70;99.90
51982;DHT22;37998;53.416;6.730;2023-05-07T07:46:48;10.70;99.90
51982;DHT22;37998;53.416;6.730;2023-05-07T07:49:16;10.80;99.90
51982;DHT22;37998;53.416;6.730;2023-05-07T07:51:43;10.80;99.90
51982;DHT22;37998;53.416;6.730;2023-05-07T07:54:10;10.90;99.90
51982;DHT22;37998;53.416;6.730;2023-05-07T07:56:36;10.90;99.90
51982;DHT22;37998;53.416;6.730;2023-05-07T07:59:04;10.90;99.90
51982;DHT22;37998;53.416;6.730;2023-05-07T08:01:31;10.90;99.90
51982;DHT22;37998;53.416;6.730;2023-05-07T08:03:57;10.90;99.90
51982;DHT22;37998;53.416;6.730;2023-05-07T08:06:25;11.00;99.90
51982;DHT22;37998;53.416;6.730;2023-05-07T08:08:54;10.90;99.90
51982;DHT22;37998;53.416;6.730;2023-05-07T08:11:21;11.00;99.90
51982;DHT22;37998;53.416;6.730;2023-05-07T08:13:48;11.00;99.90
51982;DHT22;37998;53.416;6.730;2023-05-07T08:16:14;11.00;99.90
51982;DHT22;37998;53.416;6.730;2023-05-07T08:18:41;10.90;99.90
51982;DHT22;37998;53.416;6.730;2023-05-07T08:21:07;11.00;99.90
51982;DHT22;37998;53.416;6.730;2023-05-07T08:23:34;11.00;99.90
51982;DHT22;37998;53.416;6.730;2023-05-07T08:26:00;11.10;99.90
51982;DHT22;37998;53.416;6.730;2023-05-07T08:28:26;11.10;99.90
51982;DHT22;37998;53.416;6.730;2023-05-07T08:30:52;11.10;99.90
51982;DHT22;37998;53.416;6.730;2023-05-07T08:33:18;11.20;99.90
51982;DHT22;37998;53.416;6.730;2023-05-07T08:35:44;11.20;99.90
51982;DHT22;37998;53.416;6.730;2023-05-07T08:38:12;11.30;99.90
51982;DHT22;37998;53.416;6.730;2023-05-07T08:40:39;11.40;99.90
51982;DHT22;37998;53.416;6.730;2023-05-07T08:43:13;11.30;99.90
51982;DHT22;37998;53.416;6.730;2023-05-07T08:45:41;11.40;99.90
51982;DHT22;37998;53.416;6.730;2023-05-07T08:48:14;11.50;99.90
51982;DHT22;37998;53.416;6.730;2023-05-07T08:50:41;11.40;99.90
51982;DHT22;37998;53.416;6.730;2023-05-07T08:53:09;11.50;99.90
51982;DHT22;37998;53.416;6.730;2023-05-07T08:55:35;11.60;99.90
51982;DHT22;37998;53.416;6.730;2023-05-07T08:58:01;11.60;99.90
51982;DHT22;37998;53.416;6.730;2023-05-07T09:00:27;11.70;99.90
51982;DHT22;37998;53.416;6.730;2023-05-07T09:02:56;11.70;99.90
51982;DHT22;37998;53.416;6.730;2023-05-07T09:05:22;11.70;99.90
51982;DHT22;37998;53.416;6.730;2023-05-07T09:07:48;11.80;99.90
51982;DHT22;37998;53.416;6.730;2023-05-07T09:10:15;11.80;99.90
51982;DHT22;37998;53.416;6.730;2023-05-07T09:12:42;11.80;99.90
51982;DHT22;37998;53.416;6.730;2023-05-07T09:15:10;11.90;99.90
51982;DHT22;37998;53.416;6.730;2023-05-07T09:17:38;12.00;99.90
51982;DHT22;37998;53.416;6.730;2023-05-07T09:20:05;12.00;99.90
51982;DHT22;37998;53.416;6.730;2023-05-07T09:22:32;12.10;99.90
51982;DHT22;37998;53.416;6.730;2023-05-07T09:25:03;12.10;99.90
51982;DHT22;37998;53.416;6.730;2023-05-07T09:27:30;12.10;99.90
51982;DHT22;37998;53.416;6.730;2023-05-07T09:29:58;12.10;99.90
51982;DHT22;37998;53.416;6.730;2023-05-07T09:32:25;12.20;99.90
51982;DHT22;37998;53.416;6.730;2023-05-07T09:34:51;12.30;99.90
51982;DHT22;37998;53.416;6.730;2023-05-07T09:37:21;12.40;99.90
51982;DHT22;37998;53.416;6.730;2023-05-07T09:39:49;12.50;99.90
51982;DHT22;37998;53.416;6.730;2023-05-07T09:42:23;12.60;99.90
51982;DHT22;37998;53.416;6.730;2023-05-07T09:44:51;12.60;99.90
51982;DHT22;37998;53.416;6.730;2023-05-07T09:47:23;12.60;99.90
51982;DHT22;37998;53.416;6.730;2023-05-07T09:49:55;12.70;99.90
51982;DHT22;37998;53.416;6.730;2023-05-07T09:52:24;12.80;99.90
51982;DHT22;37998;53.416;6.730;2023-05-07T09:54:56;12.90;99.90
51982;DHT22;37998;53.416;6.730;2023-05-07T09:57:27;12.90;99.90
51982;DHT22;37998;53.416;6.730;2023-05-07T09:59:59;12.90;99.90
51982;DHT22;37998;53.416;6.730;2023-05-07T10:02:31;13.00;99.90
51982;DHT22;37998;53.416;6.730;2023-05-07T10:05:01;13.00;99.90
51982;DHT22;37998;53.416;6.730;2023-05-07T10:07:31;13.00;99.90
51982;DHT22;37998;53.416;6.730;2023-05-07T10:10:04;13.00;99.90
51982;DHT22;37998;53.416;6.730;2023-05-07T10:12:35;13.00;99.90
51982;DHT22;37998;53.416;6.730;2023-05-07T10:15:08;13.10;99.90
51982;DHT22;37998;53.416;6.730;2023-05-07T10:17:36;13.10;99.90
51982;DHT22;37998;53.416;6.730;2023-05-07T10:20:03;13.00;99.90
51982;DHT22;37998;53.416;6.730;2023-05-07T10:22:43;13.00;99.90
51982;DHT22;37998;53.416;6.730;2023-05-07T10:25:25;13.10;99.90
51982;DHT22;37998;53.416;6.730;2023-05-07T10:27:57;13.20;99.90
51982;DHT22;37998;53.416;6.730;2023-05-07T10:32:59;13.30;99.90
51982;DHT22;37998;53.416;6.730;2023-05-07T10:35:38;13.40;99.90
51982;DHT22;37998;53.416;6.730;2023-05-07T10:38:05;13.50;99.90
51982;DHT22;37998;53.416;6.730;2023-05-07T10:40:33;13.50;99.90
51982;DHT22;37998;53.416;6.730;2023-05-07T10:43:05;13.60;99.90
51982;DHT22;37998;53.416;6.730;2023-05-07T10:45:37;13.70;99.90
51982;DHT22;37998;53.416;6.730;2023-05-07T10:48:11;13.70;99.90
51982;DHT22;37998;53.416;6.730;2023-05-07T10:50:39;13.70;99.90
51982;DHT22;37998;53.416;6.730;2023-05-07T10:58:49;13.70;99.90
51982;DHT22;37998;53.416;6.730;2023-05-07T11:01:55;13.70;99.90
51982;DHT22;37998;53.416;6.730;2023-05-07T11:04:37;13.80;99.90
51982;DHT22;37998;53.416;6.730;2023-05-07T11:07:30;13.80;99.90
51982;DHT22;37998;53.416;6.730;2023-05-07T11:10:02;13.90;99.90
51982;DHT22;37998;53.416;6.730;2023-05-07T11:15:10;13.90;99.90
51982;DHT22;37998;53.416;6.730;2023-05-07T11:17:55;14.00;99.90
51982;DHT22;37998;53.416;6.730;2023-05-07T11:26:41;14.10;99.90
51982;DHT22;37998;53.416;6.730;2023-05-07T11:29:16;14.10;99.90
51982;DHT22;37998;53.416;6.730;2023-05-07T11:31:43;14.20;99.90
51982;DHT22;37998;53.416;6.730;2023-05-07T11:34:11;14.40;99.90
51982;DHT22;37998;53.416;6.730;2023-05-07T11:36:42;14.50;99.90
51982;DHT22;37998;53.416;6.730;2023-05-07T11:39:28;14.60;99.90
51982;DHT22;37998;53.416;6.730;2023-05-07T11:41:54;14.70;99.90
51982;DHT22;37998;53.416;6.730;2023-05-07T11:44:20;14.70;99.90
51982;DHT22;37998;53.416;6.730;2023-05-07T11:46:46;14.70;99.90
51982;DHT22;37998;53.416;6.730;2023-05-07T11:49:12;14.90;99.90
51982;DHT22;37998;53.416;6.730;2023-05-07T11:51:38;15.00;99.90
51982;DHT22;37998;53.416;6.730;2023-05-07T11:54:05;15.00;99.90
51982;DHT22;37998;53.416;6.730;2023-05-07T11:56:35;15.10;99.90
51982;DHT22;37998;53.416;6.730;2023-05-07T11:59:02;15.70;99.90
51982;DHT22;37998;53.416;6.730;2023-05-07T12:01:28;15.10;99.90
51982;DHT22;37998;53.416;6.730;2023-05-07T12:03:54;15.30;99.90
51982;DHT22;37998;53.416;6.730;2023-05-07T12:06:20;15.50;99.90
51982;DHT22;37998;53.416;6.730;2023-05-07T12:08:46;15.50;99.90
51982;DHT22;37998;53.416;6.730;2023-05-07T12:11:16;15.60;99.90
51982;DHT22;37998;53.416;6.730;2023-05-07T12:13:47;15.70;99.90
51982;DHT22;37998;53.416;6.730;2023-05-07T12:16:14;15.70;99.90
51982;DHT22;37998;53.416;6.730;2023-05-07T12:18:40;15.70;99.90
51982;DHT22;37998;53.416;6.730;2023-05-07T12:21:06;15.60;99.90
51982;DHT22;37998;53.416;6.730;2023-05-07T12:23:34;15.80;99.90
51982;DHT22;37998;53.416;6.730;2023-05-07T12:26:01;15.80;99.90
51982;DHT22;37998;53.416;6.730;2023-05-07T12:28:29;15.70;99.90
51982;DHT22;37998;53.416;6.730;2023-05-07T12:30:56;15.70;99.90
51982;DHT22;37998;53.416;6.730;2023-05-07T12:33:26;15.80;99.90
51982;DHT22;37998;53.416;6.730;2023-05-07T12:35:55;15.80;99.90
51982;DHT22;37998;53.416;6.730;2023-05-07T12:38:22;15.90;99.90
51982;DHT22;37998;53.416;6.730;2023-05-07T12:40:50;16.00;99.90
51982;DHT22;37998;53.416;6.730;2023-05-07T12:45:44;16.10;99.90
51982;DHT22;37998;53.416;6.730;2023-05-07T12:48:10;16.10;99.90
51982;DHT22;37998;53.416;6.730;2023-05-07T12:50:36;16.00;99.90
51982;DHT22;37998;53.416;6.730;2023-05-07T12:53:06;16.10;99.90
51982;DHT22;37998;53.416;6.730;2023-05-07T12:55:45;16.30;99.90
51982;DHT22;37998;53.416;6.730;2023-05-07T12:58:19;16.40;99.90
51982;DHT22;37998;53.416;6.730;2023-05-07T13:00:48;16.50;99.90
51982;DHT22;37998;53.416;6.730;2023-05-07T13:03:25;16.60;99.90
51982;DHT22;37998;53.416;6.730;2023-05-07T13:05:52;16.70;99.90
51982;DHT22;37998;53.416;6.730;2023-05-07T13:08:32;16.70;99.90
51982;DHT22;37998;53.416;6.730;2023-05-07T13:11:00;16.80;99.90
51982;DHT22;37998;53.416;6.730;2023-05-07T13:13:34;16.80;99.90
51982;DHT22;37998;53.416;6.730;2023-05-07T13:16:01;16.80;99.90
51982;DHT22;37998;53.416;6.730;2023-05-07T13:18:29;16.90;99.90
51982;DHT22;37998;53.416;6.730;2023-05-07T13:20:55;16.90;99.90
51982;DHT22;37998;53.416;6.730;2023-05-07T13:23:21;16.90;99.90
51982;DHT22;37998;53.416;6.730;2023-05-07T13:25:48;16.90;99.90
51982;DHT22;37998;53.416;6.730;2023-05-07T13:28:16;16.90;99.90
51982;DHT22;37998;53.416;6.730;2023-05-07T13:30:42;17.00;99.90
51982;DHT22;37998;53.416;6.730;2023-05-07T13:33:09;17.00;99.90
51982;DHT22;37998;53.416;6.730;2023-05-07T13:35:35;17.00;99.90
51982;DHT22;37998;53.416;6.730;2023-05-07T13:38:01;17.00;99.90
51982;DHT22;37998;53.416;6.730;2023-05-07T13:40:27;16.90;99.90
51982;DHT22;37998;53.416;6.730;2023-05-07T13:42:53;17.00;99.90
51982;DHT22;37998;53.416;6.730;2023-05-07T13:45:19;17.00;99.90
51982;DHT22;37998;53.416;6.730;2023-05-07T13:47:46;17.10;99.90
51982;DHT22;37998;53.416;6.730;2023-05-07T13:50:12;17.10;99.90
51982;DHT22;37998;53.416;6.730;2023-05-07T13:52:45;17.20;99.90
51982;DHT22;37998;53.416;6.730;2023-05-07T13:55:22;17.10;99.90
51982;DHT22;37998;53.416;6.730;2023-05-07T13:57:58;17.20;99.90
51982;DHT22;37998;53.416;6.730;2023-05-07T14:00:25;17.30;99.90
51982;DHT22;37998;53.416;6.730;2023-05-07T14:02:52;17.30;99.90
51982;DHT22;37998;53.416;6.730;2023-05-07T14:05:18;17.30;99.90
51982;DHT22;37998;53.416;6.730;2023-05-07T14:07:48;17.30;99.90
51982;DHT22;37998;53.416;6.730;2023-05-07T14:10:18;17.20;99.90
51982;DHT22;37998;53.416;6.730;2023-05-07T14:12:44;17.40;99.90
51982;DHT22;37998;53.416;6.730;2023-05-07T14:15:13;17.40;99.90
51982;DHT22;37998;53.416;6.730;2023-05-07T14:17:39;17.40;99.90
51982;DHT22;37998;53.416;6.730;2023-05-07T14:20:05;17.50;99.90
51982;DHT22;37998;53.416;6.730;2023-05-07T14:22:36;17.50;99.90
51982;DHT22;37998;53.416;6.730;2023-05-07T14:25:02;17.50;99.90
51982;DHT22;37998;53.416;6.730;2023-05-07T14:27:28;17.40;99.90
51982;DHT22;37998;53.416;6.730;2023-05-07T14:29:54;17.40;99.90
51982;DHT22;37998;53.416;6.730;2023-05-07T14:32:21;17.40;99.90
51982;DHT22;37998;53.416;6.730;2023-05-07T14:34:47;17.40;99.90
51982;DHT22;37998;53.416;6.730;2023-05-07T14:37:13;17.40;99.90
51982;DHT22;37998;53.416;6.730;2023-05-07T14:39:39;17.40;99.90
51982;DHT22;37998;53.416;6.730;2023-05-07T14:42:05;17.50;99.90
51982;DHT22;37998;53.416;6.730;2023-05-07T14:44:34;17.50;99.90
51982;DHT22;37998;53.416;6.730;2023-05-07T14:47:00;17.50;99.90
51982;DHT22;37998;53.416;6.730;2023-05-07T14:49:26;17.60;99.90
51982;DHT22;37998;53.416;6.730;2023-05-07T14:51:53;17.70;99.90
51982;DHT22;37998;53.416;6.730;2023-05-07T14:54:19;17.70;99.90
51982;DHT22;37998;53.416;6.730;2023-05-07T14:56:45;17.80;99.90
51982;DHT22;37998;53.416;6.730;2023-05-07T14:59:11;17.80;99.90
51982;DHT22;37998;53.416;6.730;2023-05-07T15:01:37;17.70;99.90
51982;DHT22;37998;53.416;6.730;2023-05-07T15:04:04;17.70;99.90
51982;DHT22;37998;53.416;6.730;2023-05-07T15:06:31;17.50;99.90
51982;DHT22;37998;53.416;6.730;2023-05-07T15:08:57;17.50;99.90
51982;DHT22;37998;53.416;6.730;2023-05-07T15:11:23;17.40;99.90
51982;DHT22;37998;53.416;6.730;2023-05-07T15:13:49;17.40;99.90
51982;DHT22;37998;53.416;6.730;2023-05-07T15:16:16;17.30;99.90
51982;DHT22;37998;53.416;6.730;2023-05-07T15:18:42;17.30;99.90
51982;DHT22;37998;53.416;6.730;2023-05-07T15:21:08;17.30;99.90
51982;DHT22;37998;53.416;6.730;2023-05-07T15:23:35;17.30;99.90
51982;DHT22;37998;53.416;6.730;2023-05-07T15:26:01;17.30;99.90
51982;DHT22;37998;53.416;6.730;2023-05-07T15:28:27;17.30;99.90
51982;DHT22;37998;53.416;6.730;2023-05-07T15:30:56;17.30;99.90
51982;DHT22;37998;53.416;6.730;2023-05-07T15:33:23;17.30;99.90
51982;DHT22;37998;53.416;6.730;2023-05-07T15:35:49;17.30;99.90
51982;DHT22;37998;53.416;6.730;2023-05-07T15:38:15;17.30;99.90
51982;DHT22;37998;53.416;6.730;2023-05-07T15:40:41;17.30;99.90
51982;DHT22;37998;53.416;6.730;2023-05-07T15:43:08;17.30;99.90
51982;DHT22;37998;53.416;6.730;2023-05-07T15:45:42;17.30;99.90
51982;DHT22;37998;53.416;6.730;2023-05-07T15:48:08;17.30;99.90
51982;DHT22;37998;53.416;6.730;2023-05-07T15:50:35;17.30;99.90
51982;DHT22;37998;53.416;6.730;2023-05-07T15:53:02;17.30;99.90